Flight Track Log - Related Links

Times and Time Zones

All times are in EDT time to prevent confusion due to time zone crossing. See the SKW4682 flight status page for this flight to view local times or setup timezone preferences in your user account.

Time Position Orientation Groundspeed Altitude Reporting Facility
EDT Latitude Longitude Course Direction KTS MPH feet Rate Location/Type
Thu 10:57:55 PM 44.8681 -93.1303 300° West 164 189 3,100  Level Minneapolis Center
Thu 10:58:56 PM 44.9028 -93.0753 48° Northeast 239 275 5,000 2,244 Climbing Minneapolis Center
Thu 10:59:00 PM 45.2484 -93.6618 295° West  Level FlightAware Approximate
Thu 10:59:58 PM 44.9689 -93.1150 337° Northwest 269 310 7,700  Level Minneapolis Center
Thu 11:00:00 PM 45.2992 -93.7925 301° West  Level FlightAware Approximate
Thu 11:00:59 PM 45.0194 -93.2233 303° West 279 321 10,600  Level Minneapolis Center
Thu 11:01:00 PM 45.3532 -93.9209 301° West  Level FlightAware Approximate
Thu 11:02:00 PM 45.4058 -94.0506 295° West  Level FlightAware Approximate
Thu 11:02:00 PM 45.0650 -93.3186 304° West 296 341 12,200  Level Minneapolis Center
Thu 11:03:00 PM 45.4537 -94.1840 300° West  Level FlightAware Approximate
Thu 11:03:02 PM 45.1133 -93.4225 303° West 317 365 13,800  Level Minneapolis Center
Thu 11:04:03 PM 45.1633 -93.5275 304° West 323 372 15,600 1,756 Climbing Minneapolis Center
Thu 11:05:05 PM 45.2131 -93.6336 304° West 325 374 17,400 1,463 Climbing Minneapolis Center
Thu 11:06:06 PM 45.2617 -93.7378 304° West 319 367 18,600 1,328 Climbing Minneapolis Center
Thu 11:07:07 PM 45.3131 -93.8469 304° West 330 380 20,100 1,463 Climbing Minneapolis Center
Thu 11:08:09 PM 45.3733 -93.9786 303° West 333 383 21,600 1,268 Climbing Minneapolis Center
Thu 11:09:10 PM 45.4244 -94.0897 303° West 337 388 22,700 1,073 Climbing Minneapolis Center
Thu 11:10:12 PM 45.4689 -94.2106 298° West 343 395 23,800 976 Climbing Minneapolis Center
Thu 11:11:13 PM 45.5147 -94.3297 299° West 344 396 24,700 878 Climbing Minneapolis Center
Thu 11:12:15 PM 45.5603 -94.4519 298° West 349 402 25,600 780 Climbing Minneapolis Center
Thu 11:13:16 PM 45.6122 -94.5697 302° West 352 405 26,300 639 Climbing Minneapolis Center
Thu 11:14:17 PM 45.6717 -94.6828 307° West 356 410 26,900 732 Climbing Minneapolis Center
Thu 11:15:19 PM 45.7411 -94.8178 306° West 354 407 27,800 780 Climbing Minneapolis Center
Thu 11:16:20 PM 45.7994 -94.9308 307° West 355 409 28,500 683 Climbing Minneapolis Center
Thu 11:17:22 PM 45.8611 -95.0503 307° West 356 410 29,200 683 Climbing Minneapolis Center
Thu 11:18:23 PM 45.9189 -95.1639 306° West 354 407 29,900 639 Climbing Minneapolis Center
Thu 11:19:24 PM 45.9761 -95.2781 306° West 353 406 30,500 537 Climbing Minneapolis Center
Thu 11:20:26 PM 46.0339 -95.3914 306° West 354 407 31,000 488 Climbing Minneapolis Center
Thu 11:21:27 PM 46.0911 -95.5039 306° West 351 404 31,500 492 Climbing Minneapolis Center
Thu 11:22:28 PM 46.1472 -95.6172 306° West 350 403 32,000 244 Climbing Minneapolis Center
Thu 11:23:30 PM 46.2042 -95.7308 306° West 349 402 32,000  Level Minneapolis Center
Thu 11:24:31 PM 46.2661 -95.8569 305° West 361 415 32,000  Level Minneapolis Center
Thu 11:25:32 PM 46.3250 -95.9772 305° West 368 423 32,000  Level Minneapolis Center
Thu 11:26:34 PM 46.3850 -96.0978 306° West 369 425 32,000  Level Minneapolis Center
Thu 11:27:35 PM 46.4464 -96.2211 306° West 375 432 32,000  Level Minneapolis Center
Thu 11:28:36 PM 46.5075 -96.3453 306° West 379 436 32,000  Level Minneapolis Center
Thu 11:29:38 PM 46.5869 -96.4914 308° West 385 443 32,000  Level Minneapolis Center
Thu 11:30:39 PM 46.6525 -96.6136 308° West 385 443 32,000  Level Minneapolis Center
Thu 11:31:40 PM 46.7186 -96.7375 308° West 388 447 32,000  Level Minneapolis Center
Thu 11:32:41 PM 46.7867 -96.8614 309° West 391 450 32,000  Level Minneapolis Center
Thu 11:33:43 PM 46.8531 -96.9856 308° West 391 450 32,000  Level Minneapolis Center
Thu 11:34:44 PM 46.9197 -97.1117 308° West 392 451 32,000  Level Minneapolis Center
Thu 11:35:45 PM 46.9881 -97.2372 309° West 394 453 32,000  Level Minneapolis Center
Thu 11:36:46 PM 47.0547 -97.3653 307° West 396 456 32,000  Level Minneapolis Center
Thu 11:37:48 PM 47.1236 -97.4925 309° West 400 460 32,000  Level Minneapolis Center
Thu 11:38:49 PM 47.1906 -97.6222 307° West 399 459 32,000  Level Minneapolis Center
Thu 11:39:50 PM 47.2722 -97.7775 308° West 398 458 32,000  Level Minneapolis Center
Thu 11:40:51 PM 47.3397 -97.9083 307° West 399 459 32,000  Level Minneapolis Center
Thu 11:41:52 PM 47.4092 -98.0417 308° West 400 460 32,000  Level Minneapolis Center
Thu 11:42:53 PM 47.4778 -98.1758 307° West 402 463 32,000  Level Minneapolis Center
Thu 11:43:55 PM 47.5461 -98.3078 308° West 402 463 32,000  Level Minneapolis Center
Thu 11:44:56 PM 47.6142 -98.4422 307° West 403 464 32,000  Level Minneapolis Center
Thu 11:45:57 PM 47.6811 -98.5747 307° West 403 464 32,000  Level Minneapolis Center
Thu 11:46:58 PM 47.7492 -98.7106 307° West 407 468 32,000  Level Minneapolis Center
Thu 11:47:59 PM 47.8164 -98.8444 307° West 407 468 32,000  Level Minneapolis Center
Thu 11:49:00 PM 47.8839 -98.9814 306° West 408 470 32,000  Level Minneapolis Center
Thu 11:50:01 PM 47.9511 -99.1167 307° West 409 471 32,000  Level Minneapolis Center
Thu 11:51:02 PM 48.0189 -99.2533 307° West 409 471 32,000  Level Minneapolis Center
Thu 11:52:03 PM 48.0861 -99.3908 306° West 410 472 32,000  Level Minneapolis Center
Thu 11:53:04 PM 48.1531 -99.5314 306° West 412 474 32,000  Level Minneapolis Center
Thu 11:54:05 PM 48.2203 -99.6686 306° West 410 472 32,000  Level Minneapolis Center
Thu 11:55:05 PM 48.2886 -99.8067 307° West 411 473 32,000  Level Minneapolis Center
Thu 11:55:05 PM 48.2886 -99.8067 307° West 411 473 32,000  Level Minneapolis Center
Thu 11:56:06 PM 48.3569 -99.9458 306° West 413 475 32,000  Level Minneapolis Center
Thu 11:56:06 PM 48.3569 -99.9458 306° West 413 475 32,000  Level Minneapolis Center
Thu 11:57:07 PM 48.4369 -100.1147 306° West 414 476 32,000  Level Minneapolis Center
Thu 11:57:07 PM 48.4369 -100.1147 306° West 414 476 32,000  Level Minneapolis Center
Thu 11:58:08 PM 48.5056 -100.2556 306° West 415 478 32,000  Level Minneapolis Center
Thu 11:58:08 PM 48.5056 -100.2556 306° West 415 478 32,000  Level Minneapolis Center
Thu 11:59:00 PM 48.5333 -100.3833 288° West 410 472 32,000  Level Winnipeg Center
Thu 11:59:00 PM 48.5333 -100.3833 288° West 410 472 32,000  Level Winnipeg Center
Fri 12:00:00 AM 48.6167 -100.5333 310° West 420 483 32,000  Level Winnipeg Center
Fri 12:01:00 AM 48.6833 -100.6833 304° West 420 483 32,000  Level Winnipeg Center
Fri 12:01:15 AM 48.7081 -100.6864 355° North 420 483 32,000  Level Minneapolis Center
Fri 12:02:15 AM 48.7767 -100.8311 306° West 422 486 32,000  Level Minneapolis Center
Fri 12:03:00 AM 48.8000 -100.9500 287° West 420 483 32,000  Level Winnipeg Center
Fri 12:04:17 AM 48.9144 -101.1225 315° West 425 489 32,000  Level Minneapolis Center
Fri 12:05:00 AM 48.9500 -101.2667 291° West 420 483 32,000  Level Winnipeg Center
Fri 12:06:00 AM 49.0167 -101.4000 307° West 420 483 32,000  Level Winnipeg Center
Fri 12:07:00 AM 49.0833 -101.5667 301° West 430 495 32,000  Level Winnipeg Center
Fri 12:08:00 AM 49.1667 -101.7000 314° West 430 495 32,000  Level Winnipeg Center
Fri 12:09:00 AM 49.2167 -101.8667 295° West 430 495 32,000  Level Winnipeg Center
Fri 12:10:00 AM 49.2833 -102.0167 304° West 430 495 32,000  Level Winnipeg Center
Fri 12:11:00 AM 49.3667 -102.1500 314° West 430 495 32,000  Level Winnipeg Center
Fri 12:12:00 AM 49.4167 -102.3167 295° West 430 495 32,000  Level Winnipeg Center
Fri 12:13:00 AM 49.5000 -102.4833 308° West 430 495 32,000  Level Winnipeg Center
Fri 12:14:00 AM 49.5500 -102.6167 300° West 430 495 32,000  Level Winnipeg Center
Fri 12:15:00 AM 49.6167 -102.7833 302° West 430 495 32,000 -650 Level Winnipeg Center
Fri 12:16:00 AM 49.6833 -102.9500 302° West 430 495 30,700 -1,850 Descending Winnipeg Center
Fri 12:17:00 AM 49.7500 -103.0833 308° West 440 506 28,300 -2,500 Descending Winnipeg Center
Fri 12:18:00 AM 49.8167 -103.2667 299° West 450 518 25,700 -2,500 Descending Winnipeg Center
Fri 12:19:00 AM 49.9000 -103.4167 311° West 450 518 23,300 -2,400 Descending Winnipeg Center
Fri 12:20:00 AM 49.9500 -103.5833 295° West 450 518 20,900 -2,250 Descending Winnipeg Center
Fri 12:21:00 AM 50.0333 -103.7500 308° West 430 495 18,800 -1,900 Descending Winnipeg Center
Fri 12:22:00 AM 50.0833 -103.8833 300° West 420 483 17,100 -1,900 Descending Winnipeg Center
Fri 12:23:00 AM 50.1667 -104.0333 311° West 400 460 15,000 -2,000 Descending Winnipeg Center
Fri 12:24:00 AM 50.2500 -104.1167 327° Northwest 360 414 13,100 -2,000 Descending Winnipeg Center
Fri 12:25:00 AM 50.3000 -104.2333 304° West 340 391 11,000 -1,800 Descending Winnipeg Center
Fri 12:26:00 AM 50.3667 -104.3167 321° Northwest 320 368 9,500 -1,500 Descending Winnipeg Center
Fri 12:27:00 AM 50.4333 -104.4000 321° Northwest 290 334 8,000 -1,400 Descending Winnipeg Center
Fri 12:28:00 AM 50.4833 -104.4667 320° Northwest 270 311 6,700 -1,400 Descending Winnipeg Center
Fri 12:29:00 AM 50.5000 -104.5833 283° West 250 288 5,200 -1,300 Descending Winnipeg Center
Fri 12:30:00 AM 50.5000 -104.6833 270° West 250 288 4,100 -1,100 Descending Winnipeg Center

Login

Don't have an account? Register now (free) for customized features, flight alerts, and more!